This is the latest recevied weather packets stored in our database for station/object KO6TH-15. If no packets are shown the sender has not sent any weather packets the latest 10 day(s).
| Time | Temp. | Humidity | Pressure | Rain* | Wind** | Luminosity | Snow |
|---|---|---|---|---|---|---|---|
| 1777488321 | 23.89° C | 51% | 0 hPa | 0 mm | - | - | - |
| 1777487721 | 23.33° C | 52% | 0 hPa | 0 mm | - | - | - |
| 1777487121 | 22.22° C | 54% | 0 hPa | 0 mm | - | - | - |
| 1777486521 | 22.22° C | 54% | 0 hPa | 0 mm | - | - | - |
| 1777485921 | 21.67° C | 56% | 0 hPa | 0 mm | - | - | - |
| 1777485291 | 21.11° C | 57% | 0 hPa | 0 mm | - | - | - |
| 1777484661 | 21.11° C | 56% | 0 hPa | 11.43 mm | - | - | - |
| 1777484031 | 19.44° C | 59% | 0 hPa | 11.43 mm | - | - | - |
| 1777483401 | 20° C | 60% | 0 hPa | 11.43 mm | - | - | - |
| 1777482771 | 19.44° C | 59% | 0 hPa | 11.43 mm | - | - | - |
| 1777482141 | 19.44° C | 59% | 0 hPa | 11.43 mm | - | - | - |
| 1777481511 | 18.89° C | 60% | 0 hPa | 11.43 mm | - | - | - |
| 1777480881 | 19.44° C | 58% | 0 hPa | 0 mm | - | - | - |
| 1777480251 | 18.89° C | 58% | 0 hPa | 0 mm | - | - | - |
| 1777479621 | 18.33° C | 60% | 0 hPa | 0 mm | - | - | - |
| 1777479021 | 16.67° C | 70% | 0 hPa | 0 mm | - | - | - |
| 1777478391 | 16.11° C | 70% | 0 hPa | 0 mm | - | - | - |
| 1777477791 | 15.56° C | 71% | 0 hPa | 0 mm | - | - | - |
| 1777477161 | 15° C | 71% | 0 hPa | 0 mm | - | - | - |
| 1777476531 | 15° C | 74% | 0 hPa | 0 mm | - | - | - |
| 1777475931 | 13.33° C | 80% | 0 hPa | 0 mm | - | - | - |
| 1777475331 | 13.33° C | 78% | 0 hPa | 0 mm | - | - | - |
| 1777474701 | 11.67° C | 83% | 0 hPa | 0 mm | - | - | - |
| 1777474071 | 10° C | 91% | 0 hPa | 0 mm | - | - | - |
| 1777473441 | 8.89° C | 96% | 0 hPa | 0 mm | - | - | - |
* Rain latest hour (hover to see other rain measurements)
** Current wind speed in m/s (hover to see current wind gust speed)